Time;durP1;ratioP1;P1;durP2;ratioP2;P2;SDS_P1;SDS_P2;PMS_P1;PMS_P2;Temp;Humidity;BMP_temperature;BMP_pressure;BME280_temperature;BME280_humidity;BME280_pressure;Samples;Min_cycle;Max_cycle;Signal;HPM_P1;HPM_P2
2024/01/21 00:02:21;;;;;;;6.60;4.38;;;6.20;76.40;;;;;;6126658;23;20105;-79
2024/01/21 00:04:50;;;;;;;4.50;3.83;;;6.20;76.40;;;;;;6126560;23;20075;-78
2024/01/21 00:07:16;;;;;;;5.13;4.00;;;6.20;76.00;;;;;;6153074;23;20009;-78
2024/01/21 00:09:42;;;;;;;5.72;4.40;;;6.20;76.00;;;;;;6152523;23;20028;-78
2024/01/21 00:12:08;;;;;;;5.68;4.25;;;6.10;75.90;;;;;;6152605;23;20025;-78
2024/01/21 00:14:36;;;;;;;5.93;4.40;;;6.10;76.10;;;;;;6152194;23;20468;-78
2024/01/21 00:17:04;;;;;;;5.75;4.40;;;6.10;76.00;;;;;;6152578;23;20013;-81
2024/01/21 00:19:31;;;;;;;5.32;4.40;;;6.10;76.00;;;;;;6152464;23;20433;-78
2024/01/21 00:21:57;;;;;;;4.70;3.95;;;6.10;75.80;;;;;;6152986;23;20014;-78
2024/01/21 00:24:24;;;;;;;4.72;4.22;;;6.10;75.90;;;;;;6152452;23;20017;-81
2024/01/21 00:26:50;;;;;;;5.57;4.20;;;6.10;75.70;;;;;;6151127;23;20037;-81
2024/01/21 00:29:16;;;;;;;5.00;4.28;;;6.10;75.90;;;;;;6126248;23;20021;-81
2024/01/21 00:31:42;;;;;;;5.90;4.35;;;6.10;75.50;;;;;;6152576;23;20104;-80
2024/01/21 00:34:08;;;;;;;5.07;4.25;;;6.00;75.60;;;;;;6126785;23;20016;-81
2024/01/21 00:36:34;;;;;;;5.65;4.45;;;6.00;75.60;;;;;;6152303;23;20021;-81
2024/01/21 00:39:01;;;;;;;5.70;4.30;;;6.00;75.50;;;;;;6152369;23;20017;-82
2024/01/21 00:41:27;;;;;;;6.07;4.20;;;6.10;75.70;;;;;;6126214;23;20468;-80
2024/01/21 00:43:53;;;;;;;5.40;3.83;;;6.00;75.60;;;;;;6151840;23;20014;-82
2024/01/21 00:46:19;;;;;;;5.20;4.25;;;6.00;75.60;;;;;;6153438;23;20010;-81
2024/01/21 00:48:45;;;;;;;5.05;4.25;;;6.00;75.60;;;;;;6152633;23;20029;-81
2024/01/21 00:51:11;;;;;;;5.32;4.05;;;6.00;75.70;;;;;;6152816;23;20025;-82
2024/01/21 00:53:37;;;;;;;5.55;4.30;;;6.00;75.90;;;;;;6152623;23;20025;-81
2024/01/21 00:56:04;;;;;;;8.43;4.25;;;6.00;75.70;;;;;;6152096;23;20017;-84
2024/01/21 00:58:30;;;;;;;5.68;4.30;;;6.00;75.80;;;;;;6152189;23;20020;-80
2024/01/21 01:00:56;;;;;;;6.03;4.20;;;6.00;75.60;;;;;;6152526;23;20010;-78
2024/01/21 01:03:21;;;;;;;5.78;4.43;;;6.00;75.40;;;;;;6150585;23;20018;-77
2024/01/21 01:05:47;;;;;;;5.97;4.30;;;5.90;75.50;;;;;;6152137;23;20048;-77
2024/01/21 01:08:13;;;;;;;6.15;4.45;;;5.90;75.50;;;;;;6151888;23;20345;-78
2024/01/21 01:10:39;;;;;;;8.85;4.78;;;5.90;75.30;;;;;;6151946;23;20095;-78
2024/01/21 01:13:06;;;;;;;5.30;4.15;;;5.90;75.30;;;;;;6126382;23;20560;-78
2024/01/21 01:15:32;;;;;;;6.25;4.38;;;5.90;75.30;;;;;;6151974;23;20048;-78
2024/01/21 01:17:58;;;;;;;6.63;4.50;;;5.90;75.20;;;;;;6151849;23;20025;-78
2024/01/21 01:20:24;;;;;;;6.85;4.85;;;5.80;75.20;;;;;;6125723;23;20024;-78
2024/01/21 01:22:50;;;;;;;6.13;4.93;;;5.90;75.40;;;;;;6101113;23;20025;-78
2024/01/21 01:25:16;;;;;;;7.55;5.32;;;5.80;75.10;;;;;;6152545;23;20043;-78
2024/01/21 01:27:42;;;;;;;6.72;4.65;;;5.90;75.00;;;;;;6151796;23;20017;-79
2024/01/21 01:30:08;;;;;;;7.90;5.22;;;5.80;74.70;;;;;;6151702;23;20025;-80
2024/01/21 01:32:34;;;;;;;6.13;4.55;;;5.80;75.00;;;;;;6151669;23;20029;-78
2024/01/21 01:35:00;;;;;;;6.85;4.60;;;5.80;74.70;;;;;;6151742;23;20088;-79
2024/01/21 01:37:26;;;;;;;5.50;4.47;;;5.80;74.90;;;;;;6151709;23;20038;-78
2024/01/21 01:39:52;;;;;;;5.53;4.47;;;5.80;74.90;;;;;;6151903;23;20075;-80
2024/01/21 01:42:18;;;;;;;6.80;5.10;;;5.80;75.00;;;;;;6151657;23;20048;-80
2024/01/21 01:44:44;;;;;;;6.63;5.03;;;5.70;75.20;;;;;;6149951;23;20469;-80
2024/01/21 01:47:10;;;;;;;6.22;5.00;;;5.80;75.20;;;;;;6151487;23;20045;-77
2024/01/21 01:49:38;;;;;;;7.65;5.28;;;5.70;75.10;;;;;;6151310;23;20437;-78
2024/01/21 01:52:05;;;;;;;5.63;4.55;;;5.70;75.00;;;;;;6151991;23;20088;-81
2024/01/21 01:54:34;;;;;;;6.55;4.80;;;5.70;74.80;;;;;;6151498;23;20057;-77
2024/01/21 01:57:03;;;;;;;8.38;5.10;;;5.70;74.70;;;;;;6151441;23;20021;-77
2024/01/21 01:59:30;;;;;;;6.60;5.13;;;5.70;74.70;;;;;;6151592;23;20029;-79
2024/01/21 02:01:57;;;;;;;7.75;5.10;;;5.70;74.60;;;;;;6151380;23;20018;-79
2024/01/21 02:04:24;;;;;;;6.85;5.20;;;5.70;74.50;;;;;;6152024;23;20025;-78
2024/01/21 02:06:52;;;;;;;8.65;5.57;;;5.70;74.30;;;;;;6101130;23;20365;-79
2024/01/21 02:09:18;;;;;;;9.20;5.40;;;5.60;74.40;;;;;;6150008;23;20052;-79
2024/01/21 02:11:44;;;;;;;6.53;5.10;;;5.60;74.40;;;;;;6125189;23;20024;-79
2024/01/21 02:14:11;;;;;;;6.15;4.90;;;5.60;74.30;;;;;;6150085;23;20018;-79
2024/01/21 02:16:37;;;;;;;7.85;5.60;;;5.60;74.10;;;;;;6151465;23;20014;-80
2024/01/21 02:19:19;;;;;;;6.63;5.20;;;5.60;74.20;;;;;;6151768;23;20040;-78
2024/01/21 02:21:45;;;;;;;7.57;5.35;;;5.60;74.30;;;;;;6151242;23;20021;-79
2024/01/21 02:24:11;;;;;;;8.27;5.55;;;5.50;73.90;;;;;;6151483;23;20052;-80
2024/01/21 02:26:38;;;;;;;7.05;5.30;;;5.50;73.90;;;;;;6125462;23;20068;-80
2024/01/21 02:29:04;;;;;;;7.45;5.55;;;5.50;73.80;;;;;;6151349;23;20088;-78
2024/01/21 02:31:30;;;;;;;9.38;5.90;;;5.50;73.60;;;;;;6151363;23;20044;-78
2024/01/21 02:33:56;;;;;;;6.25;4.95;;;5.50;73.40;;;;;;6152328;23;20088;-78
2024/01/21 02:36:22;;;;;;;7.45;5.45;;;5.40;73.20;;;;;;6150063;23;20049;-78
2024/01/21 02:38:48;;;;;;;8.55;5.50;;;5.40;73.30;;;;;;6150002;23;20117;-78
2024/01/21 02:41:14;;;;;;;6.43;4.90;;;5.40;73.30;;;;;;6151681;23;20501;-78
2024/01/21 02:43:40;;;;;;;5.82;4.90;;;5.40;73.40;;;;;;6151620;23;20024;-78
2024/01/21 02:46:06;;;;;;;6.80;4.60;;;5.40;73.40;;;;;;6151306;23;20015;-78
2024/01/21 02:48:32;;;;;;;6.47;4.68;;;5.40;73.40;;;;;;6150471;23;20030;-80
2024/01/21 02:50:58;;;;;;;5.57;4.18;;;5.40;73.40;;;;;;6125243;23;20029;-77
2024/01/21 02:53:24;;;;;;;6.93;4.60;;;5.40;73.40;;;;;;6149822;23;20021;-81
2024/01/21 02:55:50;;;;;;;6.85;4.43;;;5.40;73.30;;;;;;6151352;23;20018;-81
2024/01/21 02:58:16;;;;;;;6.70;4.18;;;5.30;73.20;;;;;;6151877;23;20013;-81
2024/01/21 03:00:42;;;;;;;6.05;4.80;;;5.40;73.20;;;;;;6151144;23;20073;-79
2024/01/21 03:03:10;;;;;;;6.40;4.82;;;5.30;73.20;;;;;;6151007;23;20021;-82
2024/01/21 03:05:36;;;;;;;6.25;4.78;;;5.30;73.10;;;;;;6149953;23;20014;-81
2024/01/21 03:08:03;;;;;;;7.38;5.00;;;5.30;72.90;;;;;;6150839;23;20026;-80
2024/01/21 03:10:29;;;;;;;7.47;4.82;;;5.30;72.80;;;;;;6152954;23;20019;-80
2024/01/21 03:12:55;;;;;;;6.38;4.50;;;5.30;72.70;;;;;;6127836;23;20081;-82
2024/01/21 03:15:21;;;;;;;6.47;5.03;;;5.30;72.80;;;;;;6127436;23;20021;-78
2024/01/21 03:17:47;;;;;;;6.45;4.72;;;5.30;72.60;;;;;;6151571;23;20112;-78
2024/01/21 03:20:13;;;;;;;5.57;4.10;;;5.20;72.40;;;;;;6126771;23;20009;-79
2024/01/21 03:22:38;;;;;;;6.57;4.68;;;5.20;72.40;;;;;;6152887;23;20010;-79
2024/01/21 03:25:05;;;;;;;7.68;5.10;;;5.20;72.40;;;;;;6127459;23;20659;-78
2024/01/21 03:27:31;;;;;;;6.53;4.40;;;5.20;72.50;;;;;;6151516;23;20485;-80
2024/01/21 03:29:57;;;;;;;5.53;4.25;;;5.20;72.40;;;;;;6152955;23;20024;-78
2024/01/21 03:32:23;;;;;;;7.05;4.32;;;5.20;72.50;;;;;;6152922;23;20096;-78
2024/01/21 03:34:51;;;;;;;8.43;4.97;;;5.20;72.30;;;;;;6152822;23;20010;-79
2024/01/21 03:37:18;;;;;;;6.57;4.30;;;5.10;72.30;;;;;;6153626;23;20488;-78
2024/01/21 03:39:44;;;;;;;5.57;4.18;;;5.10;72.20;;;;;;6126773;23;20477;-79
2024/01/21 03:42:10;;;;;;;7.07;4.00;;;5.10;72.10;;;;;;6153001;23;20365;-78
2024/01/21 03:44:36;;;;;;;7.82;4.30;;;5.10;72.20;;;;;;6153112;23;20017;-79
2024/01/21 03:47:02;;;;;;;7.18;4.43;;;5.10;72.20;;;;;;6152665;23;20018;-77
2024/01/21 03:49:29;;;;;;;7.22;3.92;;;5.10;72.40;;;;;;6152556;23;20369;-80
2024/01/21 03:51:54;;;;;;;6.32;4.65;;;5.10;72.60;;;;;;6151997;23;20091;-79
2024/01/21 03:54:21;;;;;;;6.55;4.30;;;5.10;72.50;;;;;;6152794;23;20052;-79
2024/01/21 03:56:48;;;;;;;7.60;4.45;;;5.10;72.50;;;;;;6152626;23;20040;-79
2024/01/21 03:59:14;;;;;;;6.63;4.13;;;5.10;72.40;;;;;;6152682;23;20025;-79
2024/01/21 04:01:44;;;;;;;5.75;4.38;;;5.00;72.20;;;;;;6150855;23;20014;-79
2024/01/21 04:04:13;;;;;;;6.13;4.22;;;5.00;72.10;;;;;;6151582;23;20097;-79
2024/01/21 04:06:41;;;;;;;7.55;4.72;;;5.00;72.00;;;;;;6151189;23;20025;-80
2024/01/21 04:09:08;;;;;;;7.70;4.97;;;5.00;72.00;;;;;;6126228;23;20071;-80
2024/01/21 04:11:34;;;;;;;5.93;4.15;;;5.00;71.80;;;;;;6152339;23;20029;-81
2024/01/21 04:14:00;;;;;;;6.18;4.28;;;5.00;71.80;;;;;;6152608;23;20352;-80
2024/01/21 04:16:26;;;;;;;6.90;4.40;;;5.00;71.70;;;;;;6152517;23;20009;-81
2024/01/21 04:18:52;;;;;;;6.63;3.70;;;5.00;71.60;;;;;;6153083;23;20436;-80
2024/01/21 04:21:18;;;;;;;5.35;3.80;;;4.90;71.30;;;;;;6126371;23;20033;-81
2024/01/21 04:23:44;;;;;;;6.10;4.10;;;4.90;71.30;;;;;;6152386;23;20021;-82
2024/01/21 04:26:10;;;;;;;5.00;3.78;;;4.90;71.10;;;;;;6126480;23;20021;-83
2024/01/21 04:28:38;;;;;;;5.50;3.97;;;4.90;70.90;;;;;;6126212;23;20013;-79
2024/01/21 04:31:05;;;;;;;7.32;4.22;;;4.90;70.90;;;;;;6152873;23;20088;-79
2024/01/21 04:33:31;;;;;;;5.15;3.80;;;4.90;70.70;;;;;;6152706;23;20104;-79
2024/01/21 04:35:57;;;;;;;5.35;4.22;;;4.80;70.70;;;;;;6126304;23;20045;-79
2024/01/21 04:38:25;;;;;;;5.63;4.03;;;4.90;70.70;;;;;;6152421;23;20111;-78
2024/01/21 04:40:52;;;;;;;6.88;3.90;;;4.80;70.70;;;;;;6152459;23;20048;-79
2024/01/21 04:43:18;;;;;;;5.13;3.45;;;4.80;70.70;;;;;;6126840;23;20115;-80
2024/01/21 04:45:44;;;;;;;7.03;4.05;;;4.80;70.60;;;;;;6152529;23;20025;-80
2024/01/21 04:48:10;;;;;;;4.22;2.85;;;4.80;70.60;;;;;;6152247;23;20029;-81
2024/01/21 04:50:36;;;;;;;4.38;3.40;;;4.70;70.60;;;;;;6152038;23;20033;-81
2024/01/21 04:53:02;;;;;;;5.10;3.38;;;4.80;70.70;;;;;;6152183;23;20081;-80
2024/01/21 04:55:28;;;;;;;3.83;2.95;;;4.80;70.70;;;;;;6152101;23;20022;-81
2024/01/21 04:57:54;;;;;;;7.57;4.13;;;4.70;70.70;;;;;;6151018;23;20101;-80
2024/01/21 05:00:20;;;;;;;4.63;3.40;;;4.70;70.70;;;;;;6125964;23;20334;-79
2024/01/21 05:02:46;;;;;;;6.00;3.67;;;4.70;70.70;;;;;;6151722;23;20017;-79
2024/01/21 05:05:12;;;;;;;3.95;3.10;;;4.70;70.60;;;;;;6151560;23;20037;-82
2024/01/21 05:07:40;;;;;;;5.15;3.53;;;4.70;70.50;;;;;;6126134;23;20013;-81
2024/01/21 05:10:07;;;;;;;4.65;3.20;;;4.70;70.50;;;;;;6126189;23;20012;-80
2024/01/21 05:12:33;;;;;;;5.22;3.30;;;4.70;70.50;;;;;;6125826;23;20014;-81
2024/01/21 05:14:59;;;;;;;4.55;3.30;;;4.70;70.50;;;;;;6152293;23;20021;-80
2024/01/21 05:17:25;;;;;;;4.97;3.67;;;4.70;70.30;;;;;;6152186;23;20076;-80
2024/01/21 05:19:51;;;;;;;5.03;3.85;;;4.60;70.30;;;;;;6150165;23;20508;-80
2024/01/21 05:22:17;;;;;;;6.43;3.17;;;4.60;70.30;;;;;;6126378;23;20078;-81
2024/01/21 05:24:43;;;;;;;4.25;3.40;;;4.60;70.30;;;;;;6151847;23;20025;-81
2024/01/21 05:27:09;;;;;;;4.90;3.53;;;4.60;70.00;;;;;;6151876;23;20032;-81
2024/01/21 05:29:35;;;;;;;5.22;3.50;;;4.60;69.70;;;;;;6101013;23;20041;-82
2024/01/21 05:32:01;;;;;;;5.68;3.58;;;4.60;69.80;;;;;;6150907;23;20060;-83
2024/01/21 05:34:27;;;;;;;6.13;3.80;;;4.60;69.60;;;;;;6126784;23;20492;-82
2024/01/21 05:36:53;;;;;;;5.55;3.40;;;4.60;69.60;;;;;;6152642;23;20048;-82
2024/01/21 05:39:19;;;;;;;5.70;3.85;;;4.50;69.40;;;;;;6127168;23;20029;-82
2024/01/21 05:42:00;;;;;;;5.78;3.70;;;4.50;69.30;;;;;;6125219;23;20018;-83
2024/01/21 05:44:26;;;;;;;5.45;3.97;;;4.50;69.20;;;;;;6125803;23;20021;-84
2024/01/21 05:46:52;;;;;;;6.05;3.80;;;4.50;69.20;;;;;;6149779;23;20072;-85
2024/01/21 05:49:18;;;;;;;6.93;4.28;;;4.50;69.10;;;;;;6151779;23;20025;-82
2024/01/21 05:51:44;;;;;;;6.07;3.90;;;4.50;69.30;;;;;;6151188;23;20045;-82
2024/01/21 05:54:10;;;;;;;4.85;3.30;;;4.50;69.40;;;;;;6149851;23;20048;-81
2024/01/21 05:56:36;;;;;;;5.80;3.92;;;4.50;69.40;;;;;;6151226;23;20025;-83
2024/01/21 05:59:02;;;;;;;7.05;4.07;;;4.40;69.50;;;;;;6151337;23;20029;-83
2024/01/21 06:01:28;;;;;;;5.90;3.88;;;4.50;69.60;;;;;;6151245;23;20024;-83
2024/01/21 06:03:54;;;;;;;7.22;3.90;;;4.40;69.70;;;;;;6152075;23;20009;-81
2024/01/21 06:06:20;;;;;;;3.85;3.33;;;4.40;69.60;;;;;;6151372;23;20044;-80
2024/01/21 06:08:46;;;;;;;6.03;3.85;;;4.40;69.40;;;;;;6151257;23;20028;-80
2024/01/21 06:11:12;;;;;;;7.07;3.70;;;4.50;69.40;;;;;;6149192;23;20014;-81
2024/01/21 06:13:38;;;;;;;6.50;3.92;;;4.50;69.30;;;;;;6142468;23;20025;-80
2024/01/21 06:16:05;;;;;;;7.20;3.55;;;4.50;69.20;;;;;;6125473;23;20012;-85
2024/01/21 06:18:31;;;;;;;7.32;4.03;;;4.50;69.20;;;;;;6124853;23;20022;-89
2024/01/21 06:20:57;;;;;;;6.47;4.25;;;4.50;69.10;;;;;;6150969;23;20092;-80
2024/01/21 06:23:23;;;;;;;5.38;3.83;;;4.60;69.10;;;;;;6124708;23;20021;-79
2024/01/21 06:25:49;;;;;;;5.95;3.33;;;4.60;69.50;;;;;;6150127;23;20020;-84
2024/01/21 06:28:16;;;;;;;5.50;3.72;;;4.60;70.10;;;;;;6101655;23;20022;-79
2024/01/21 06:30:42;;;;;;;6.32;3.40;;;4.70;70.10;;;;;;6152388;23;20021;-85
2024/01/21 06:33:08;;;;;;;7.93;4.10;;;4.60;70.70;;;;;;6125741;23;20049;-85
2024/01/21 06:35:34;;;;;;;9.20;3.90;;;4.60;70.00;;;;;;6126440;23;20025;-82
2024/01/21 06:38:00;;;;;;;6.07;3.40;;;4.70;70.00;;;;;;6125753;23;20013;-84
2024/01/21 06:40:26;;;;;;;10.57;3.55;;;4.70;70.00;;;;;;6100662;23;20013;-81
2024/01/21 06:42:52;;;;;;;6.55;3.47;;;4.70;69.80;;;;;;6153258;23;20016;-82
2024/01/21 06:45:18;;;;;;;9.88;3.58;;;4.70;69.80;;;;;;6150665;23;20349;-83
2024/01/21 06:47:44;;;;;;;5.63;3.40;;;4.70;69.90;;;;;;6132456;23;20031;-81
2024/01/21 06:50:11;;;;;;;8.18;3.35;;;4.70;69.80;;;;;;6094785;23;20038;-80
2024/01/21 06:52:37;;;;;;;7.47;2.97;;;4.70;69.90;;;;;;6094161;23;20010;-83
2024/01/21 06:55:03;;;;;;;6.55;3.38;;;4.70;69.80;;;;;;6118766;23;20014;-81
2024/01/21 06:57:29;;;;;;;6.25;3.65;;;4.70;70.00;;;;;;6094051;23;20020;-83
2024/01/21 06:59:55;;;;;;;4.60;3.00;;;4.70;70.10;;;;;;6093519;23;20109;-81
2024/01/21 07:02:21;;;;;;;4.75;3.88;;;4.80;70.20;;;;;;6094297;23;20029;-81
2024/01/21 07:04:47;;;;;;;5.43;3.42;;;4.70;70.30;;;;;;6092240;23;20019;-80
2024/01/21 07:07:13;;;;;;;6.43;3.65;;;4.80;70.20;;;;;;6094556;23;20017;-82
2024/01/21 07:09:41;;;;;;;8.10;3.80;;;4.80;70.10;;;;;;6094651;23;20022;-81
2024/01/21 07:12:08;;;;;;;4.65;3.75;;;4.80;69.90;;;;;;6093341;23;20029;-83
2024/01/21 07:14:34;;;;;;;5.15;3.85;;;4.80;70.00;;;;;;6094163;23;20521;-84
2024/01/21 07:17:04;;;;;;;7.07;3.85;;;4.80;69.70;;;;;;6092854;23;20018;-79
2024/01/21 07:19:30;;;;;;;6.40;3.75;;;4.90;70.40;;;;;;6068530;23;20014;-81
2024/01/21 07:21:56;;;;;;;5.35;3.75;;;4.90;69.60;;;;;;6094302;23;20021;-82
2024/01/21 07:24:22;;;;;;;5.65;3.58;;;4.90;69.50;;;;;;6094576;23;20018;-79
2024/01/21 07:26:48;;;;;;;6.32;3.67;;;5.00;69.80;;;;;;6094322;23;20352;-79
2024/01/21 07:29:14;;;;;;;5.72;4.15;;;5.00;69.40;;;;;;6094509;23;20034;-77
2024/01/21 07:31:40;;;;;;;7.93;4.18;;;5.10;69.70;;;;;;6092548;23;20038;-78
2024/01/21 07:34:09;;;;;;;7.22;4.25;;;5.10;69.70;;;;;;6094873;23;20116;-80
2024/01/21 07:36:35;;;;;;;8.27;4.97;;;5.20;69.50;;;;;;6095050;23;20530;-77
2024/01/21 07:39:04;;;;;;;8.43;4.45;;;5.30;69.60;;;;;;6117173;23;20328;-79
2024/01/21 07:41:31;;;;;;;7.60;4.15;;;5.30;69.60;;;;;;6092066;23;20466;-79
2024/01/21 07:43:57;;;;;;;6.10;4.28;;;5.40;69.60;;;;;;6093562;23;20395;-78
2024/01/21 07:46:23;;;;;;;9.88;4.90;;;5.50;69.60;;;;;;6069029;23;20010;-79
2024/01/21 07:48:49;;;;;;;6.93;4.38;;;5.50;69.40;;;;;;6115778;23;20034;-78
2024/01/21 07:51:21;;;;;;;6.93;4.85;;;5.60;69.40;;;;;;6116812;23;20030;-79
2024/01/21 07:53:47;;;;;;;7.20;4.70;;;5.60;69.40;;;;;;6115691;23;20427;-80
2024/01/21 07:56:13;;;;;;;9.80;4.80;;;5.70;69.40;;;;;;6094720;23;20559;-82
2024/01/21 07:58:39;;;;;;;8.30;4.93;;;5.80;69.40;;;;;;6095593;23;20014;-79
2024/01/21 08:01:11;;;;;;;7.80;4.30;;;5.80;69.50;;;;;;6101470;23;20336;-82
2024/01/21 08:03:37;;;;;;;8.77;4.85;;;5.90;69.80;;;;;;6126015;23;20097;-83
2024/01/21 08:06:05;;;;;;;6.57;4.35;;;6.00;69.80;;;;;;6101811;23;20557;-83
2024/01/21 08:08:31;;;;;;;6.55;4.20;;;6.00;70.10;;;;;;6103102;23;20022;-83
2024/01/21 08:10:57;;;;;;;7.75;4.65;;;6.10;70.10;;;;;;6101349;23;20018;-82
2024/01/21 08:13:23;;;;;;;7.82;4.18;;;6.20;70.10;;;;;;6102303;23;20558;-82
2024/01/21 08:15:50;;;;;;;6.18;3.80;;;6.20;70.10;;;;;;6091912;23;20061;-81
2024/01/21 08:18:19;;;;;;;6.07;3.70;;;6.20;70.00;;;;;;6085546;23;20053;-78
2024/01/21 08:20:46;;;;;;;10.52;4.50;;;6.20;70.00;;;;;;6092685;23;20519;-78
2024/01/21 08:23:12;;;;;;;7.25;4.65;;;6.30;70.20;;;;;;6091520;23;20010;-86
2024/01/21 08:25:38;;;;;;;6.40;4.38;;;6.30;69.90;;;;;;6093452;23;20014;-82
2024/01/21 08:28:05;;;;;;;9.35;4.80;;;6.40;69.90;;;;;;6064330;23;20049;-81
2024/01/21 08:30:31;;;;;;;6.57;4.25;;;6.40;69.70;;;;;;6093685;23;20548;-80
2024/01/21 08:32:57;;;;;;;7.55;3.90;;;6.50;69.50;;;;;;6090798;23;20019;-81
2024/01/21 08:35:23;;;;;;;7.53;4.55;;;6.50;69.60;;;;;;6094649;23;20047;-82
2024/01/21 08:37:49;;;;;;;5.50;3.80;;;6.50;69.10;;;;;;6117019;23;20010;-82
2024/01/21 08:40:16;;;;;;;7.47;4.25;;;6.50;69.30;;;;;;6094097;23;20442;-79
2024/01/21 08:42:43;;;;;;;5.40;3.83;;;6.50;69.10;;;;;;6093901;23;20022;-79
2024/01/21 08:45:09;;;;;;;6.32;4.10;;;6.60;69.20;;;;;;6092402;23;20029;-76
2024/01/21 08:47:35;;;;;;;8.38;3.78;;;6.60;70.10;;;;;;6115602;23;20038;-76
2024/01/21 08:52:46;;;;;;;5.40;3.38;;;6.70;72.10;;;;;;6149678;23;20013;-79
2024/01/21 08:55:13;;;;;;;8.52;3.95;;;6.70;72.80;;;;;;6075836;23;20009;-80
2024/01/21 08:57:39;;;;;;;7.70;4.53;;;6.70;72.10;;;;;;6150842;23;20021;-81
2024/01/21 09:00:08;;;;;;;7.82;3.95;;;6.70;70.70;;;;;;6151368;23;20139;-85
2024/01/21 09:02:34;;;;;;;6.15;3.85;;;6.80;71.10;;;;;;6156832;23;20024;-86
2024/01/21 09:05:00;;;;;;;7.38;3.80;;;6.80;71.60;;;;;;6103084;23;20052;-79
2024/01/21 09:07:26;;;;;;;4.72;3.58;;;6.80;71.00;;;;;;6149988;23;20017;-80
2024/01/21 09:09:52;;;;;;;7.82;3.33;;;6.90;69.90;;;;;;6149548;23;20037;-79
2024/01/21 09:12:18;;;;;;;6.68;3.75;;;6.90;69.10;;;;;;6149432;23;20025;-78
2024/01/21 09:14:44;;;;;;;6.72;3.45;;;6.90;68.90;;;;;;6147596;23;20551;-79
2024/01/21 09:17:10;;;;;;;6.57;3.75;;;6.90;68.20;;;;;;6122803;23;20014;-77
2024/01/21 09:19:37;;;;;;;6.40;3.65;;;6.90;68.10;;;;;;6123017;23;20053;-77
2024/01/21 09:22:03;;;;;;;5.75;3.47;;;6.90;68.40;;;;;;6147970;23;20469;-78
2024/01/21 09:24:29;;;;;;;6.25;3.50;;;6.90;68.20;;;;;;6122337;23;20045;-77
2024/01/21 09:26:55;;;;;;;5.70;3.42;;;6.90;67.90;;;;;;6123067;23;20029;-77
2024/01/21 09:29:21;;;;;;;6.18;3.75;;;6.90;67.60;;;;;;6098247;23;20084;-78
2024/01/21 09:31:57;;;;;;;6.65;3.90;;;6.90;67.50;;;;;;6148488;23;20092;-81
2024/01/21 09:34:24;;;;;;;6.88;3.60;;;6.90;67.80;;;;;;6150112;23;20690;-81
2024/01/21 09:36:51;;;;;;;6.18;3.55;;;6.90;67.60;;;;;;6151314;23;20017;-81
2024/01/21 09:39:18;;;;;;;5.18;3.10;;;6.90;67.90;;;;;;6150345;23;20032;-83
2024/01/21 09:41:51;;;;;;;5.20;3.60;;;6.90;67.80;;;;;;6151881;23;20135;-85
2024/01/21 09:44:25;;;;;;;7.38;3.40;;;6.90;67.60;;;;;;6124715;23;20029;-82
2024/01/21 09:46:56;;;;;;;7.13;3.50;;;6.90;67.50;;;;;;6149872;23;20460;-80
2024/01/21 09:49:22;;;;;;;7.47;3.63;;;6.90;67.40;;;;;;6125685;23;20021;-80
2024/01/21 09:51:49;;;;;;;6.45;3.92;;;6.90;67.50;;;;;;6147783;23;20021;-79
2024/01/21 09:54:16;;;;;;;6.70;3.92;;;6.90;67.50;;;;;;6148148;23;20352;-79
2024/01/21 09:56:43;;;;;;;6.43;3.45;;;6.90;67.20;;;;;;6122991;23;20029;-76
2024/01/21 09:59:10;;;;;;;5.55;3.10;;;6.90;67.10;;;;;;6122779;23;20023;-82
2024/01/21 10:01:40;;;;;;;4.90;2.80;;;6.80;67.10;;;;;;6123347;23;20009;-81
2024/01/21 10:04:14;;;;;;;6.78;2.78;;;6.90;68.90;;;;;;6149738;23;20348;-79
2024/01/21 10:06:41;;;;;;;7.50;3.00;;;6.90;71.00;;;;;;6149635;23;20022;-82
2024/01/21 10:09:16;;;;;;;4.97;3.10;;;6.90;71.00;;;;;;6150221;23;20096;-81
2024/01/21 10:11:42;;;;;;;4.28;2.75;;;6.90;70.10;;;;;;6125558;23;20043;-81
2024/01/21 10:14:08;;;;;;;8.32;3.38;;;6.90;69.40;;;;;;6127142;23;20457;-83
2024/01/21 10:16:39;;;;;;;4.10;2.58;;;6.90;68.70;;;;;;6125712;23;20005;-83
2024/01/21 10:19:06;;;;;;;5.35;2.85;;;6.90;68.20;;;;;;6125325;23;20041;-80
2024/01/21 10:21:32;;;;;;;4.22;2.97;;;6.90;67.90;;;;;;6123368;23;20017;-81
2024/01/21 10:24:01;;;;;;;4.50;3.00;;;6.90;68.50;;;;;;6123276;23;20022;-83
2024/01/21 10:26:27;;;;;;;3.88;2.70;;;6.90;69.50;;;;;;6124164;23;20101;-79
2024/01/21 10:28:53;;;;;;;6.97;3.35;;;6.90;69.80;;;;;;6148081;23;20013;-81
2024/01/21 10:31:19;;;;;;;7.85;2.85;;;6.90;69.20;;;;;;6123680;23;20010;-81
2024/01/21 10:33:46;;;;;;;6.78;3.53;;;6.90;68.70;;;;;;6147845;23;20416;-82
2024/01/21 10:36:12;;;;;;;7.68;3.40;;;6.80;68.10;;;;;;6123972;23;20018;-81
2024/01/21 10:38:50;;;;;;;5.20;3.05;;;6.80;67.80;;;;;;6149784;23;20025;-80
2024/01/21 10:41:30;;;;;;;11.27;3.28;;;6.80;67.60;;;;;;6149671;23;20021;-81
2024/01/21 10:43:57;;;;;;;5.95;3.00;;;6.80;67.40;;;;;;6149122;23;20014;-82
2024/01/21 10:46:26;;;;;;;4.70;3.45;;;6.80;67.20;;;;;;6149002;23;20009;-82
2024/01/21 10:48:57;;;;;;;7.43;2.85;;;6.80;67.10;;;;;;6091005;23;20101;-81
2024/01/21 10:51:23;;;;;;;4.70;3.05;;;6.70;67.00;;;;;;6089604;23;20105;-81
2024/01/21 10:53:53;;;;;;;5.55;2.95;;;6.70;66.90;;;;;;6089700;23;20496;-81
2024/01/21 10:56:20;;;;;;;5.55;3.10;;;6.70;66.90;;;;;;6091566;23;20029;-82
2024/01/21 10:58:48;;;;;;;5.82;3.33;;;6.70;67.00;;;;;;6090993;23;25570;-81
2024/01/21 11:01:16;;;;;;;5.40;3.22;;;6.70;66.60;;;;;;6091890;23;20467;-81
2024/01/21 11:03:43;;;;;;;5.05;3.40;;;6.70;66.60;;;;;;6089141;23;20528;-80
2024/01/21 11:06:10;;;;;;;5.38;3.35;;;6.60;66.50;;;;;;6113528;23;20042;-80
2024/01/21 11:08:40;;;;;;;6.80;4.13;;;6.60;66.40;;;;;;6090786;23;20018;-80
2024/01/21 11:11:09;;;;;;;4.70;3.50;;;6.60;66.60;;;;;;6090455;23;20014;-80
2024/01/21 11:14:02;;;;;;;7.38;3.95;;;6.60;66.60;;;;;;6090500;23;20021;-80
2024/01/21 11:16:31;;;;;;;7.97;4.40;;;6.60;66.50;;;;;;6088087;23;20033;-80
2024/01/21 11:18:58;;;;;;;7.32;4.35;;;6.60;66.70;;;;;;6091274;23;20746;-79
2024/01/21 11:21:25;;;;;;;7.00;4.18;;;6.60;66.60;;;;;;6091009;23;20022;-81
2024/01/21 11:24:12;;;;;;;8.32;4.88;;;6.60;66.80;;;;;;6089353;23;20073;-80
2024/01/21 11:26:43;;;;;;;7.90;4.80;;;6.60;66.80;;;;;;6090994;23;20018;-81
2024/01/21 11:29:30;;;;;;;8.48;4.75;;;6.60;67.00;;;;;;6090430;23;20021;-81
2024/01/21 11:31:59;;;;;;;9.40;4.38;;;6.50;66.80;;;;;;6091432;23;20462;-84
2024/01/21 11:34:28;;;;;;;8.80;4.55;;;6.60;66.70;;;;;;6092588;23;20016;-80
2024/01/21 11:36:56;;;;;;;7.50;4.85;;;6.60;66.80;;;;;;6092969;23;20018;-81
2024/01/21 11:39:23;;;;;;;9.10;5.10;;;6.50;66.80;;;;;;6091109;23;20117;-80
2024/01/21 11:41:50;;;;;;;8.68;5.43;;;6.50;67.20;;;;;;6115748;23;20043;-81
2024/01/21 11:44:20;;;;;;;8.95;4.90;;;6.50;67.20;;;;;;6092888;23;20022;-81
2024/01/21 11:46:47;;;;;;;9.82;5.07;;;6.50;67.30;;;;;;6121673;23;20089;-82
2024/01/21 11:49:13;;;;;;;7.88;4.28;;;6.50;67.30;;;;;;6126989;23;20027;-82
2024/01/21 11:51:39;;;;;;;6.75;4.40;;;6.50;67.40;;;;;;6128068;23;20021;-82
2024/01/21 11:54:06;;;;;;;8.70;4.90;;;6.50;67.30;;;;;;6128956;23;20093;-82
2024/01/21 11:56:34;;;;;;;10.00;5.25;;;6.50;67.30;;;;;;6101683;23;20404;-82
2024/01/21 11:59:00;;;;;;;7.68;4.50;;;6.50;67.30;;;;;;6102312;23;20025;-82
2024/01/21 12:01:27;;;;;;;8.68;5.00;;;6.50;67.40;;;;;;6150962;23;20037;-81
2024/01/21 12:03:55;;;;;;;8.10;5.10;;;6.40;67.40;;;;;;6078774;23;20013;-81
2024/01/21 12:06:21;;;;;;;8.57;5.18;;;6.50;67.80;;;;;;6127956;23;20025;-81
2024/01/21 12:08:48;;;;;;;7.82;5.00;;;6.50;67.70;;;;;;6155185;23;20024;-82
2024/01/21 12:11:34;;;;;;;8.43;5.03;;;6.50;67.80;;;;;;6126713;23;20127;-79
2024/01/21 12:14:00;;;;;;;9.27;4.70;;;6.40;68.00;;;;;;6154338;23;20032;-81
2024/01/21 12:16:26;;;;;;;9.38;5.35;;;6.40;67.90;;;;;;6127507;23;20010;-80
2024/01/21 12:18:53;;;;;;;8.15;4.78;;;6.40;68.20;;;;;;6152321;23;20017;-81
2024/01/21 12:21:23;;;;;;;9.50;5.80;;;6.40;68.40;;;;;;6126354;23;20435;-77
2024/01/21 12:23:52;;;;;;;6.45;4.43;;;6.40;68.50;;;;;;6127165;23;20068;-81
2024/01/21 12:26:21;;;;;;;11.23;4.72;;;6.40;68.20;;;;;;6102387;23;20522;-81
2024/01/21 12:28:59;;;;;;;11.77;4.88;;;6.40;68.60;;;;;;6126190;23;20045;-79
2024/01/21 12:31:33;;;;;;;7.13;5.00;;;6.40;68.40;;;;;;6126981;23;20461;-79
2024/01/21 12:34:04;;;;;;;8.23;4.82;;;6.40;68.40;;;;;;6125904;23;20484;-80
2024/01/21 12:36:31;;;;;;;7.03;4.40;;;6.40;68.50;;;;;;6126639;23;20472;-81
2024/01/21 12:38:58;;;;;;;8.02;5.18;;;6.40;68.70;;;;;;6151043;23;20108;-79
2024/01/21 12:41:24;;;;;;;6.95;4.68;;;6.40;68.90;;;;;;6152609;23;20028;-82
2024/01/21 12:43:50;;;;;;;5.82;4.10;;;6.40;69.10;;;;;;6126413;23;20047;-84
2024/01/21 12:46:18;;;;;;;6.45;3.80;;;6.40;69.30;;;;;;6127070;23;20009;-84
2024/01/21 12:48:45;;;;;;;8.55;4.53;;;6.40;69.30;;;;;;6126547;23;20029;-84
2024/01/21 12:51:14;;;;;;;12.45;4.65;;;6.40;69.50;;;;;;6153455;23;20022;-84
2024/01/21 12:53:43;;;;;;;6.95;4.78;;;6.30;69.30;;;;;;6126659;23;20028;-84
2024/01/21 12:58:54;;;;;;;6.70;4.18;;;6.30;69.20;;;;;;6153327;23;20385;-80
2024/01/21 13:01:20;;;;;;;6.40;4.25;;;6.40;70.40;;;;;;6151794;23;20071;-80
2024/01/21 13:03:47;;;;;;;8.02;4.78;;;6.40;70.60;;;;;;6127497;23;20048;-82